sensor_id;sensor_type;location;lat;lon;timestamp;pressure;altitude;pressure_sealevel;temperature;humidity
55576;BME280;41437;45.478;9.116;2022-12-13T00:01:41;99339.16;;;0.89;100.00
55576;BME280;41437;45.478;9.116;2022-12-13T00:04:58;99332.47;;;0.78;100.00
55576;BME280;41437;45.478;9.116;2022-12-13T00:08:14;99322.69;;;0.77;100.00
55576;BME280;41437;45.478;9.116;2022-12-13T00:11:18;99325.00;;;0.80;100.00
55576;BME280;41437;45.478;9.116;2022-12-13T00:14:21;99329.13;;;0.83;100.00
55576;BME280;41437;45.478;9.116;2022-12-13T00:17:27;99325.81;;;0.74;100.00
55576;BME280;41437;45.478;9.116;2022-12-13T00:20:29;99326.84;;;0.86;100.00
55576;BME280;41437;45.478;9.116;2022-12-13T00:23:35;99325.81;;;0.87;100.00
55576;BME280;41437;45.478;9.116;2022-12-13T00:26:39;99322.06;;;0.82;100.00
55576;BME280;41437;45.478;9.116;2022-12-13T00:29:42;99320.59;;;0.72;100.00
55576;BME280;41437;45.478;9.116;2022-12-13T00:32:43;99335.19;;;0.78;100.00
55576;BME280;41437;45.478;9.116;2022-12-13T00:36:02;99324.53;;;0.90;100.00
55576;BME280;41437;45.478;9.116;2022-12-13T00:39:05;99296.84;;;0.74;100.00
55576;BME280;41437;45.478;9.116;2022-12-13T00:42:09;99325.00;;;0.80;100.00
55576;BME280;41437;45.478;9.116;2022-12-13T00:45:14;99316.22;;;0.65;100.00
55576;BME280;41437;45.478;9.116;2022-12-13T00:48:16;99325.41;;;0.64;100.00
55576;BME280;41437;45.478;9.116;2022-12-13T00:51:19;99320.00;;;0.57;100.00
55576;BME280;41437;45.478;9.116;2022-12-13T00:54:22;99302.25;;;0.55;100.00
55576;BME280;41437;45.478;9.116;2022-12-13T00:57:28;99292.28;;;0.48;100.00
55576;BME280;41437;45.478;9.116;2022-12-13T01:00:35;99302.03;;;0.56;100.00
55576;BME280;41437;45.478;9.116;2022-12-13T01:03:37;99302.88;;;0.43;100.00
55576;BME280;41437;45.478;9.116;2022-12-13T01:06:41;99300.59;;;0.27;100.00
55576;BME280;41437;45.478;9.116;2022-12-13T01:09:44;99273.09;;;0.23;100.00
55576;BME280;41437;45.478;9.116;2022-12-13T01:13:04;99282.06;;;0.44;100.00
55576;BME280;41437;45.478;9.116;2022-12-13T01:16:09;99266.19;;;0.34;100.00
55576;BME280;41437;45.478;9.116;2022-12-13T01:19:12;99303.72;;;0.50;100.00
55576;BME280;41437;45.478;9.116;2022-12-13T01:22:16;99289.13;;;0.32;100.00
55576;BME280;41437;45.478;9.116;2022-12-13T01:25:24;99320.56;;;0.13;100.00
55576;BME280;41437;45.478;9.116;2022-12-13T01:28:50;99320.38;;;0.21;100.00
55576;BME280;41437;45.478;9.116;2022-12-13T01:31:54;99312.69;;;0.31;100.00
55576;BME280;41437;45.478;9.116;2022-12-13T01:35:07;99312.06;;;0.36;100.00
55576;BME280;41437;45.478;9.116;2022-12-13T01:38:09;99320.19;;;0.56;100.00
55576;BME280;41437;45.478;9.116;2022-12-13T01:41:19;99306.66;;;0.49;100.00
55576;BME280;41437;45.478;9.116;2022-12-13T01:45:08;99307.69;;;0.41;100.00
55576;BME280;41437;45.478;9.116;2022-12-13T01:48:18;99306.22;;;0.39;100.00
55576;BME280;41437;45.478;9.116;2022-12-13T01:51:26;99279.13;;;0.39;100.00
55576;BME280;41437;45.478;9.116;2022-12-13T01:54:36;99279.31;;;0.50;100.00
55576;BME280;41437;45.478;9.116;2022-12-13T01:57:41;99295.16;;;0.67;100.00
55576;BME280;41437;45.478;9.116;2022-12-13T02:01:03;99288.06;;;0.72;100.00
55576;BME280;41437;45.478;9.116;2022-12-13T02:04:07;99304.13;;;0.67;100.00
55576;BME280;41437;45.478;9.116;2022-12-13T02:07:10;99302.25;;;0.74;100.00
55576;BME280;41437;45.478;9.116;2022-12-13T02:10:16;99299.13;;;0.84;100.00
55576;BME280;41437;45.478;9.116;2022-12-13T02:13:18;99281.19;;;0.83;100.00
55576;BME280;41437;45.478;9.116;2022-12-13T02:16:29;99286.59;;;0.83;100.00
55576;BME280;41437;45.478;9.116;2022-12-13T02:27:18;99273.91;;;0.70;100.00
55576;BME280;41437;45.478;9.116;2022-12-13T02:30:31;99274.53;;;0.66;100.00
55576;BME280;41437;45.478;9.116;2022-12-13T02:33:47;99267.44;;;0.52;100.00
55576;BME280;41437;45.478;9.116;2022-12-13T02:36:56;99266.19;;;0.47;100.00
55576;BME280;41437;45.478;9.116;2022-12-13T02:40:21;99262.03;;;0.45;100.00
55576;BME280;41437;45.478;9.116;2022-12-13T02:43:29;99261.63;;;0.41;100.00
55576;BME280;41437;45.478;9.116;2022-12-13T02:46:45;99272.47;;;0.41;100.00
55576;BME280;41437;45.478;9.116;2022-12-13T02:50:06;99272.25;;;0.36;100.00
55576;BME280;41437;45.478;9.116;2022-12-13T02:53:09;99268.28;;;0.32;100.00
55576;BME280;41437;45.478;9.116;2022-12-13T02:56:14;99254.94;;;0.37;100.00
55576;BME280;41437;45.478;9.116;2022-12-13T02:59:16;99272.84;;;0.52;100.00
55576;BME280;41437;45.478;9.116;2022-12-13T03:02:33;99266.19;;;0.47;100.00
55576;BME280;41437;45.478;9.116;2022-12-13T03:05:44;99277.25;;;0.59;100.00
55576;BME280;41437;45.478;9.116;2022-12-13T03:09:17;99266.59;;;0.71;100.00
55576;BME280;41437;45.478;9.116;2022-12-13T03:12:33;99265.75;;;0.84;100.00
55576;BME280;41437;45.478;9.116;2022-12-13T03:15:57;99261.78;;;0.80;100.00
55576;BME280;41437;45.478;9.116;2022-12-13T03:19:10;99249.06;;;0.73;100.00
55576;BME280;41437;45.478;9.116;2022-12-13T03:22:32;99262.84;;;0.59;100.00
55576;BME280;41437;45.478;9.116;2022-12-13T03:25:35;99254.72;;;0.65;100.00
55576;BME280;41437;45.478;9.116;2022-12-13T03:28:38;99234.06;;;0.64;100.00
55576;BME280;41437;45.478;9.116;2022-12-13T03:31:40;99240.72;;;0.75;100.00
55576;BME280;41437;45.478;9.116;2022-12-13T03:34:44;99243.66;;;0.67;100.00
55576;BME280;41437;45.478;9.116;2022-12-13T03:37:46;99244.91;;;0.71;100.00
55576;BME280;41437;45.478;9.116;2022-12-13T03:40:58;99224.28;;;0.57;100.00
55576;BME280;41437;45.478;9.116;2022-12-13T03:44:03;99247.00;;;0.56;100.00
55576;BME280;41437;45.478;9.116;2022-12-13T03:47:06;99241.38;;;0.50;100.00
55576;BME280;41437;45.478;9.116;2022-12-13T03:50:14;99236.19;;;0.42;100.00
55576;BME280;41437;45.478;9.116;2022-12-13T03:53:16;99241.41;;;0.24;100.00
55576;BME280;41437;45.478;9.116;2022-12-13T03:56:18;99229.13;;;0.15;100.00
55576;BME280;41437;45.478;9.116;2022-12-13T03:59:22;99234.09;;;0.44;100.00
55576;BME280;41437;45.478;9.116;2022-12-13T04:02:25;99236.59;;;0.53;100.00
55576;BME280;41437;45.478;9.116;2022-12-13T04:05:29;99230.75;;;0.56;100.00
55576;BME280;41437;45.478;9.116;2022-12-13T04:08:35;99221.56;;;0.63;100.00
55576;BME280;41437;45.478;9.116;2022-12-13T04:11:37;99212.22;;;0.53;100.00
55576;BME280;41437;45.478;9.116;2022-12-13T04:14:56;99226.16;;;0.63;100.00
55576;BME280;41437;45.478;9.116;2022-12-13T04:17:59;99229.28;;;0.46;100.00
55576;BME280;41437;45.478;9.116;2022-12-13T04:21:16;99235.56;;;0.54;100.00
55576;BME280;41437;45.478;9.116;2022-12-13T04:24:19;99234.72;;;0.53;100.00
55576;BME280;41437;45.478;9.116;2022-12-13T04:27:21;99231.56;;;0.56;100.00
55576;BME280;41437;45.478;9.116;2022-12-13T04:30:28;99222.41;;;0.50;100.00
55576;BME280;41437;45.478;9.116;2022-12-13T04:33:31;99228.69;;;0.44;100.00
55576;BME280;41437;45.478;9.116;2022-12-13T04:36:36;99221.56;;;0.43;100.00
55576;BME280;41437;45.478;9.116;2022-12-13T04:39:39;99220.75;;;0.49;100.00
55576;BME280;41437;45.478;9.116;2022-12-13T04:42:41;99208.22;;;0.62;100.00
55576;BME280;41437;45.478;9.116;2022-12-13T04:45:43;99189.06;;;0.57;100.00
55576;BME280;41437;45.478;9.116;2022-12-13T04:48:45;99197.34;;;0.68;100.00
55576;BME280;41437;45.478;9.116;2022-12-13T04:51:50;99213.19;;;0.71;100.00
55576;BME280;41437;45.478;9.116;2022-12-13T04:54:52;99180.69;;;0.52;100.00
55576;BME280;41437;45.478;9.116;2022-12-13T04:57:54;99191.09;;;0.68;100.00
55576;BME280;41437;45.478;9.116;2022-12-13T05:00:57;99203.13;;;0.85;100.00
55576;BME280;41437;45.478;9.116;2022-12-13T05:04:00;99193.34;;;0.84;100.00
55576;BME280;41437;45.478;9.116;2022-12-13T05:07:04;99182.72;;;0.76;100.00
55576;BME280;41437;45.478;9.116;2022-12-13T05:10:07;99193.13;;;0.92;100.00
55576;BME280;41437;45.478;9.116;2022-12-13T05:13:10;99195.88;;;0.79;100.00
55576;BME280;41437;45.478;9.116;2022-12-13T05:16:12;99189.25;;;0.62;100.00
55576;BME280;41437;45.478;9.116;2022-12-13T05:19:15;99199.03;;;0.63;100.00
55576;BME280;41437;45.478;9.116;2022-12-13T05:22:19;99198.66;;;0.53;100.00
55576;BME280;41437;45.478;9.116;2022-12-13T05:25:22;99199.66;;;0.52;100.00
55576;BME280;41437;45.478;9.116;2022-12-13T05:28:24;99200.13;;;0.42;100.00
55576;BME280;41437;45.478;9.116;2022-12-13T05:31:27;99194.09;;;0.33;100.00
55576;BME280;41437;45.478;9.116;2022-12-13T05:34:29;99191.59;;;0.32;100.00
55576;BME280;41437;45.478;9.116;2022-12-13T05:37:37;99192.22;;;0.27;100.00
55576;BME280;41437;45.478;9.116;2022-12-13T05:40:39;99189.72;;;0.12;100.00
55576;BME280;41437;45.478;9.116;2022-12-13T05:43:42;99173.88;;;0.16;100.00
55576;BME280;41437;45.478;9.116;2022-12-13T05:46:44;99190.09;;;0.42;100.00
55576;BME280;41437;45.478;9.116;2022-12-13T05:49:46;99189.88;;;0.50;100.00
55576;BME280;41437;45.478;9.116;2022-12-13T05:52:50;99187.38;;;0.62;100.00
55576;BME280;41437;45.478;9.116;2022-12-13T05:55:53;99192.16;;;0.67;100.00
55576;BME280;41437;45.478;9.116;2022-12-13T05:58:56;99195.88;;;0.72;100.00
55576;BME280;41437;45.478;9.116;2022-12-13T06:01:57;99196.09;;;0.71;100.00
55576;BME280;41437;45.478;9.116;2022-12-13T06:04:59;99194.41;;;0.77;100.00
55576;BME280;41437;45.478;9.116;2022-12-13T06:08:04;99184.81;;;0.74;100.00
55576;BME280;41437;45.478;9.116;2022-12-13T06:11:06;99188.53;;;0.86;100.00
55576;BME280;41437;45.478;9.116;2022-12-13T06:14:21;99181.81;;;0.95;100.00
55576;BME280;41437;45.478;9.116;2022-12-13T06:17:23;99189.94;;;1.02;100.00
55576;BME280;41437;45.478;9.116;2022-12-13T06:20:27;99187.41;;;1.07;100.00
55576;BME280;41437;45.478;9.116;2022-12-13T06:23:32;99192.00;;;1.13;100.00
55576;BME280;41437;45.478;9.116;2022-12-13T06:26:34;99186.34;;;1.08;100.00
55576;BME280;41437;45.478;9.116;2022-12-13T06:29:36;99183.00;;;1.13;100.00
55576;BME280;41437;45.478;9.116;2022-12-13T06:32:41;99180.50;;;1.11;100.00
55576;BME280;41437;45.478;9.116;2022-12-13T06:35:43;99184.28;;;1.04;100.00
55576;BME280;41437;45.478;9.116;2022-12-13T06:38:55;99167.28;;;0.83;100.00
55576;BME280;41437;45.478;9.116;2022-12-13T06:42:14;99177.69;;;0.86;100.00
55576;BME280;41437;45.478;9.116;2022-12-13T06:45:19;99176.03;;;0.85;100.00
55576;BME280;41437;45.478;9.116;2022-12-13T06:48:21;99174.50;;;1.03;100.00
55576;BME280;41437;45.478;9.116;2022-12-13T06:51:24;99181.16;;;1.00;100.00
55576;BME280;41437;45.478;9.116;2022-12-13T06:54:28;99183.09;;;0.93;100.00
55576;BME280;41437;45.478;9.116;2022-12-13T06:57:31;99170.19;;;0.88;100.00
55576;BME280;41437;45.478;9.116;2022-12-13T07:00:41;99182.69;;;0.83;100.00
55576;BME280;41437;45.478;9.116;2022-12-13T07:03:44;99198.72;;;0.91;100.00
55576;BME280;41437;45.478;9.116;2022-12-13T07:07:00;99184.38;;;0.77;100.00
55576;BME280;41437;45.478;9.116;2022-12-13T07:10:26;99198.59;;;0.79;100.00
55576;BME280;41437;45.478;9.116;2022-12-13T07:13:30;99201.94;;;0.74;100.00
55576;BME280;41437;45.478;9.116;2022-12-13T07:16:37;99208.19;;;0.75;100.00
55576;BME280;41437;45.478;9.116;2022-12-13T07:19:40;99221.06;;;0.86;100.00
55576;BME280;41437;45.478;9.116;2022-12-13T07:22:45;99220.88;;;0.88;100.00
55576;BME280;41437;45.478;9.116;2022-12-13T07:29:41;99225.16;;;1.09;100.00
55576;BME280;41437;45.478;9.116;2022-12-13T07:32:59;99224.84;;;0.92;100.00
55576;BME280;41437;45.478;9.116;2022-12-13T07:36:02;99243.56;;;1.00;100.00
55576;BME280;41437;45.478;9.116;2022-12-13T07:39:06;99235.03;;;0.96;100.00
55576;BME280;41437;45.478;9.116;2022-12-13T07:42:07;99237.53;;;0.91;100.00
55576;BME280;41437;45.478;9.116;2022-12-13T07:45:10;99232.38;;;0.83;100.00
55576;BME280;41437;45.478;9.116;2022-12-13T07:48:12;99249.03;;;0.93;100.00
55576;BME280;41437;45.478;9.116;2022-12-13T07:51:14;99256.09;;;0.94;100.00
55576;BME280;41437;45.478;9.116;2022-12-13T07:54:15;99255.22;;;1.07;100.00
55576;BME280;41437;45.478;9.116;2022-12-13T07:57:17;99255.66;;;1.11;100.00
55576;BME280;41437;45.478;9.116;2022-12-13T08:00:20;99257.72;;;1.09;100.00
55576;BME280;41437;45.478;9.116;2022-12-13T08:03:22;99253.38;;;1.01;100.00
55576;BME280;41437;45.478;9.116;2022-12-13T08:06:24;99228.19;;;0.87;100.00
55576;BME280;41437;45.478;9.116;2022-12-13T08:09:27;99251.50;;;0.95;100.00
55576;BME280;41437;45.478;9.116;2022-12-13T08:12:29;99252.78;;;0.92;100.00
55576;BME280;41437;45.478;9.116;2022-12-13T08:15:32;99248.97;;;1.00;100.00
55576;BME280;41437;45.478;9.116;2022-12-13T08:18:34;99258.41;;;0.97;100.00
55576;BME280;41437;45.478;9.116;2022-12-13T08:21:37;99262.84;;;0.79;100.00
55576;BME280;41437;45.478;9.116;2022-12-13T08:24:39;99266.75;;;0.83;100.00
55576;BME280;41437;45.478;9.116;2022-12-13T08:27:41;99270.75;;;0.80;100.00
55576;BME280;41437;45.478;9.116;2022-12-13T08:30:44;99266.97;;;0.81;100.00
55576;BME280;41437;45.478;9.116;2022-12-13T08:33:46;99280.69;;;0.99;100.00
55576;BME280;41437;45.478;9.116;2022-12-13T08:36:48;99271.97;;;0.97;100.00
55576;BME280;41437;45.478;9.116;2022-12-13T08:39:51;99261.97;;;0.85;100.00
55576;BME280;41437;45.478;9.116;2022-12-13T08:42:53;99258.66;;;0.76;100.00
55576;BME280;41437;45.478;9.116;2022-12-13T08:45:56;99270.31;;;0.90;100.00
55576;BME280;41437;45.478;9.116;2022-12-13T08:48:58;99284.91;;;0.89;100.00
55576;BME280;41437;45.478;9.116;2022-12-13T08:52:00;99292.00;;;0.96;100.00
55576;BME280;41437;45.478;9.116;2022-12-13T08:55:01;99274.91;;;0.89;100.00
55576;BME280;41437;45.478;9.116;2022-12-13T08:58:04;99313.44;;;1.11;100.00
55576;BME280;41437;45.478;9.116;2022-12-13T09:01:09;99311.19;;;1.02;100.00
55576;BME280;41437;45.478;9.116;2022-12-13T09:04:11;99311.19;;;1.02;100.00
55576;BME280;41437;45.478;9.116;2022-12-13T09:07:13;99322.44;;;0.98;100.00
55576;BME280;41437;45.478;9.116;2022-12-13T09:10:14;99307.84;;;0.93;100.00
55576;BME280;41437;45.478;9.116;2022-12-13T09:13:16;99323.88;;;1.08;100.00
55576;BME280;41437;45.478;9.116;2022-12-13T09:16:20;99323.44;;;1.24;100.00
55576;BME280;41437;45.478;9.116;2022-12-13T09:19:23;99325.31;;;1.23;100.00
55576;BME280;41437;45.478;9.116;2022-12-13T09:22:25;99330.09;;;1.21;100.00
55576;BME280;41437;45.478;9.116;2022-12-13T09:25:27;99339.69;;;1.37;100.00
55576;BME280;41437;45.478;9.116;2022-12-13T09:28:29;99336.75;;;1.39;100.00
55576;BME280;41437;45.478;9.116;2022-12-13T09:31:32;99349.44;;;1.51;100.00
55576;BME280;41437;45.478;9.116;2022-12-13T09:34:35;99346.91;;;1.57;100.00
55576;BME280;41437;45.478;9.116;2022-12-13T09:37:36;99362.19;;;1.51;100.00
55576;BME280;41437;45.478;9.116;2022-12-13T09:40:39;99349.03;;;1.48;100.00
55576;BME280;41437;45.478;9.116;2022-12-13T09:43:44;99349.38;;;1.65;100.00
55576;BME280;41437;45.478;9.116;2022-12-13T09:46:49;99327.53;;;1.46;100.00
55576;BME280;41437;45.478;9.116;2022-12-13T09:49:52;99343.22;;;1.44;100.00
55576;BME280;41437;45.478;9.116;2022-12-13T09:52:55;99313.19;;;1.33;100.00
55576;BME280;41437;45.478;9.116;2022-12-13T09:55:57;99334.25;;;1.44;100.00
55576;BME280;41437;45.478;9.116;2022-12-13T09:58:59;99325.03;;;1.45;100.00
55576;BME280;41437;45.478;9.116;2022-12-13T10:02:19;99320.44;;;1.45;100.00
55576;BME280;41437;45.478;9.116;2022-12-13T10:05:25;99325.66;;;1.47;100.00
55576;BME280;41437;45.478;9.116;2022-12-13T10:08:31;99312.72;;;1.42;100.00
55576;BME280;41437;45.478;9.116;2022-12-13T10:11:35;99319.34;;;1.60;100.00
55576;BME280;41437;45.478;9.116;2022-12-13T10:14:39;99311.78;;;1.68;100.00
55576;BME280;41437;45.478;9.116;2022-12-13T10:17:45;99314.25;;;1.76;100.00
55576;BME280;41437;45.478;9.116;2022-12-13T10:20:49;99293.19;;;1.65;100.00
55576;BME280;41437;45.478;9.116;2022-12-13T10:23:51;99293.19;;;1.65;100.00
55576;BME280;41437;45.478;9.116;2022-12-13T10:26:53;99312.47;;;1.95;100.00
55576;BME280;41437;45.478;9.116;2022-12-13T10:30:03;99317.91;;;1.95;100.00
55576;BME280;41437;45.478;9.116;2022-12-13T10:33:18;99323.44;;;2.14;100.00
55576;BME280;41437;45.478;9.116;2022-12-13T10:36:33;99316.72;;;2.16;100.00
55576;BME280;41437;45.478;9.116;2022-12-13T10:39:37;99319.63;;;2.21;100.00
55576;BME280;41437;45.478;9.116;2022-12-13T10:42:39;99307.97;;;2.14;100.00
55576;BME280;41437;45.478;9.116;2022-12-13T10:45:42;99324.63;;;2.24;100.00
55576;BME280;41437;45.478;9.116;2022-12-13T10:48:48;99318.53;;;2.29;100.00
55576;BME280;41437;45.478;9.116;2022-12-13T10:51:51;99319.19;;;2.24;100.00
55576;BME280;41437;45.478;9.116;2022-12-13T10:54:54;99307.63;;;2.36;100.00
55576;BME280;41437;45.478;9.116;2022-12-13T10:57:58;99303.88;;;2.30;100.00
55576;BME280;41437;45.478;9.116;2022-12-13T11:01:11;99305.19;;;2.21;100.00
55576;BME280;41437;45.478;9.116;2022-12-13T11:04:26;99306.66;;;2.23;100.00
55576;BME280;41437;45.478;9.116;2022-12-13T11:07:31;99306.41;;;2.32;100.00
55576;BME280;41437;45.478;9.116;2022-12-13T11:10:33;99290.28;;;2.30;100.00
55576;BME280;41437;45.478;9.116;2022-12-13T11:13:37;99302.75;;;2.44;100.00
55576;BME280;41437;45.478;9.116;2022-12-13T11:16:41;99294.19;;;2.41;100.00
55576;BME280;41437;45.478;9.116;2022-12-13T11:19:46;99284.06;;;2.48;100.00
55576;BME280;41437;45.478;9.116;2022-12-13T11:22:58;99287.66;;;2.48;100.00
55576;BME280;41437;45.478;9.116;2022-12-13T11:26:05;99265.72;;;2.43;100.00
55576;BME280;41437;45.478;9.116;2022-12-13T11:29:24;99261.13;;;2.44;100.00
55576;BME280;41437;45.478;9.116;2022-12-13T11:32:41;99271.41;;;2.60;100.00
55576;BME280;41437;45.478;9.116;2022-12-13T11:35:59;99272.44;;;2.66;100.00
55576;BME280;41437;45.478;9.116;2022-12-13T11:39:18;99259.88;;;2.65;100.00
55576;BME280;41437;45.478;9.116;2022-12-13T11:42:26;99273.25;;;2.66;100.00
55576;BME280;41437;45.478;9.116;2022-12-13T11:45:32;99269.25;;;2.69;100.00
55576;BME280;41437;45.478;9.116;2022-12-13T11:48:42;99265.81;;;2.55;100.00
55576;BME280;41437;45.478;9.116;2022-12-13T11:51:50;99263.75;;;2.25;100.00
55576;BME280;41437;45.478;9.116;2022-12-13T11:54:58;99255.00;;;2.23;100.00
55576;BME280;41437;45.478;9.116;2022-12-13T11:58:03;99241.25;;;2.18;100.00
55576;BME280;41437;45.478;9.116;2022-12-13T12:01:10;99237.03;;;2.22;100.00
55576;BME280;41437;45.478;9.116;2022-12-13T12:04:18;99234.22;;;2.36;100.00
55576;BME280;41437;45.478;9.116;2022-12-13T12:07:26;99210.19;;;2.33;100.00
55576;BME280;41437;45.478;9.116;2022-12-13T12:10:33;99217.09;;;2.54;100.00
55576;BME280;41437;45.478;9.116;2022-12-13T12:13:39;99217.50;;;2.57;100.00
55576;BME280;41437;45.478;9.116;2022-12-13T12:16:47;99219.16;;;2.58;100.00
55576;BME280;41437;45.478;9.116;2022-12-13T12:19:52;99233.84;;;2.50;100.00
55576;BME280;41437;45.478;9.116;2022-12-13T12:23:02;99234.38;;;2.41;100.00
55576;BME280;41437;45.478;9.116;2022-12-13T12:26:12;99226.88;;;2.36;100.00
55576;BME280;41437;45.478;9.116;2022-12-13T12:29:42;99230.19;;;2.38;100.00
55576;BME280;41437;45.478;9.116;2022-12-13T12:32:51;99213.19;;;2.24;100.00
55576;BME280;41437;45.478;9.116;2022-12-13T12:36:02;99217.06;;;2.35;100.00
55576;BME280;41437;45.478;9.116;2022-12-13T12:39:29;99224.91;;;2.43;100.00
55576;BME280;41437;45.478;9.116;2022-12-13T12:42:41;99221.16;;;2.44;100.00
55576;BME280;41437;45.478;9.116;2022-12-13T12:45:57;99227.88;;;2.42;100.00
55576;BME280;41437;45.478;9.116;2022-12-13T12:53:12;99236.69;;;2.62;100.00
55576;BME280;41437;45.478;9.116;2022-12-13T12:56:36;99221.31;;;2.49;100.00
55576;BME280;41437;45.478;9.116;2022-12-13T12:59:49;99215.63;;;2.33;100.00
55576;BME280;41437;45.478;9.116;2022-12-13T13:03:21;99207.78;;;2.43;100.00
55576;BME280;41437;45.478;9.116;2022-12-13T13:06:42;99205.06;;;2.43;100.00
55576;BME280;41437;45.478;9.116;2022-12-13T13:09:54;99205.56;;;2.58;100.00
55576;BME280;41437;45.478;9.116;2022-12-13T13:24:04;99205.94;;;2.62;100.00
55576;BME280;41437;45.478;9.116;2022-12-13T13:27:27;99111.75;;;2.06;100.00
55576;BME280;41437;45.478;9.116;2022-12-13T13:31:03;99183.53;;;2.41;100.00
55576;BME280;41437;45.478;9.116;2022-12-13T13:34:22;99125.28;;;2.31;100.00
55576;BME280;41437;45.478;9.116;2022-12-13T13:37:45;99169.06;;;2.66;100.00
55576;BME280;41437;45.478;9.116;2022-12-13T13:48:15;99189.84;;;2.78;100.00
55576;BME280;41437;45.478;9.116;2022-12-13T13:55:16;99159.84;;;2.48;100.00
55576;BME280;41437;45.478;9.116;2022-12-13T13:58:50;99136.09;;;2.37;100.00
55576;BME280;41437;45.478;9.116;2022-12-13T14:05:55;99181.06;;;2.58;100.00
55576;BME280;41437;45.478;9.116;2022-12-13T14:13:11;99156.44;;;2.53;100.00
55576;BME280;41437;45.478;9.116;2022-12-13T14:16:48;99181.06;;;2.58;100.00
55576;BME280;41437;45.478;9.116;2022-12-13T14:20:44;99188.72;;;2.68;100.00
55576;BME280;41437;45.478;9.116;2022-12-13T14:23:57;99180.56;;;2.68;100.00
55576;BME280;41437;45.478;9.116;2022-12-13T14:27:17;99164.28;;;2.43;100.00
55576;BME280;41437;45.478;9.116;2022-12-13T14:30:22;99174.94;;;2.44;100.00
55576;BME280;41437;45.478;9.116;2022-12-13T14:33:25;99193.31;;;2.49;100.00
55576;BME280;41437;45.478;9.116;2022-12-13T14:36:29;99190.09;;;2.34;100.00
55576;BME280;41437;45.478;9.116;2022-12-13T14:39:35;99180.44;;;2.13;100.00
55576;BME280;41437;45.478;9.116;2022-12-13T14:42:37;99202.69;;;2.28;100.00
55576;BME280;41437;45.478;9.116;2022-12-13T14:45:42;99203.91;;;2.32;100.00
55576;BME280;41437;45.478;9.116;2022-12-13T14:48:45;99202.19;;;2.38;100.00
55576;BME280;41437;45.478;9.116;2022-12-13T14:51:52;99210.09;;;2.39;100.00
55576;BME280;41437;45.478;9.116;2022-12-13T14:55:02;99200.56;;;2.30;100.00
55576;BME280;41437;45.478;9.116;2022-12-13T14:58:16;99208.97;;;2.29;100.00
55576;BME280;41437;45.478;9.116;2022-12-13T15:01:24;99161.63;;;1.93;100.00
55576;BME280;41437;45.478;9.116;2022-12-13T15:04:28;99216.75;;;2.43;100.00
55576;BME280;41437;45.478;9.116;2022-12-13T15:07:31;99207.94;;;2.48;100.00
55576;BME280;41437;45.478;9.116;2022-12-13T15:10:39;99212.53;;;2.47;100.00
55576;BME280;41437;45.478;9.116;2022-12-13T15:13:46;99167.88;;;2.18;100.00
55576;BME280;41437;45.478;9.116;2022-12-13T15:16:51;99176.50;;;2.09;100.00
55576;BME280;41437;45.478;9.116;2022-12-13T15:19:54;99205.72;;;2.13;100.00
55576;BME280;41437;45.478;9.116;2022-12-13T15:22:58;99182.13;;;1.89;100.00
55576;BME280;41437;45.478;9.116;2022-12-13T15:26:07;99173.16;;;1.88;100.00
55576;BME280;41437;45.478;9.116;2022-12-13T15:29:12;99182.53;;;1.92;100.00
55576;BME280;41437;45.478;9.116;2022-12-13T15:32:19;99196.59;;;2.08;100.00
55576;BME280;41437;45.478;9.116;2022-12-13T15:35:24;99198.91;;;2.29;100.00
55576;BME280;41437;45.478;9.116;2022-12-13T15:38:48;99165.84;;;2.32;100.00
55576;BME280;41437;45.478;9.116;2022-12-13T15:42:00;99139.53;;;2.08;100.00
55576;BME280;41437;45.478;9.116;2022-12-13T15:45:05;99180.81;;;2.41;100.00
55576;BME280;41437;45.478;9.116;2022-12-13T15:48:20;99187.31;;;2.40;100.00
55576;BME280;41437;45.478;9.116;2022-12-13T15:51:24;99202.13;;;2.44;100.00
55576;BME280;41437;45.478;9.116;2022-12-13T15:54:34;99187.72;;;2.44;100.00
55576;BME280;41437;45.478;9.116;2022-12-13T15:57:50;99200.44;;;2.43;100.00
55576;BME280;41437;45.478;9.116;2022-12-13T16:00:52;99183.66;;;2.28;100.00
55576;BME280;41437;45.478;9.116;2022-12-13T16:03:55;99200.38;;;2.32;100.00
55576;BME280;41437;45.478;9.116;2022-12-13T16:06:57;99207.50;;;2.26;100.00
55576;BME280;41437;45.478;9.116;2022-12-13T16:09:59;99215.66;;;2.26;100.00
55576;BME280;41437;45.478;9.116;2022-12-13T16:13:05;99215.06;;;2.24;100.00
55576;BME280;41437;45.478;9.116;2022-12-13T16:16:20;99226.84;;;2.18;100.00
55576;BME280;41437;45.478;9.116;2022-12-13T16:19:23;99197.91;;;1.98;100.00
55576;BME280;41437;45.478;9.116;2022-12-13T16:22:25;99204.88;;;2.19;100.00
55576;BME280;41437;45.478;9.116;2022-12-13T16:25:27;99221.97;;;2.26;100.00
55576;BME280;41437;45.478;9.116;2022-12-13T16:28:30;99215.38;;;2.34;100.00
55576;BME280;41437;45.478;9.116;2022-12-13T16:31:32;99205.13;;;2.36;100.00
55576;BME280;41437;45.478;9.116;2022-12-13T16:34:35;99219.94;;;2.40;100.00
55576;BME280;41437;45.478;9.116;2022-12-13T16:37:37;99208.41;;;2.20;100.00
55576;BME280;41437;45.478;9.116;2022-12-13T16:40:41;99223.16;;;2.31;100.00
55576;BME280;41437;45.478;9.116;2022-12-13T16:43:50;99223.34;;;2.36;100.00
55576;BME280;41437;45.478;9.116;2022-12-13T16:46:55;99207.06;;;2.29;100.00
55576;BME280;41437;45.478;9.116;2022-12-13T16:50:01;99227.44;;;2.45;100.00
55576;BME280;41437;45.478;9.116;2022-12-13T16:53:04;99199.81;;;2.23;100.00
55576;BME280;41437;45.478;9.116;2022-12-13T16:56:07;99219.16;;;2.33;100.00
55576;BME280;41437;45.478;9.116;2022-12-13T16:59:12;99216.41;;;2.40;100.00
55576;BME280;41437;45.478;9.116;2022-12-13T17:02:16;99217.63;;;2.44;100.00
55576;BME280;41437;45.478;9.116;2022-12-13T17:05:18;99209.47;;;2.44;100.00
55576;BME280;41437;45.478;9.116;2022-12-13T17:08:20;99204.19;;;2.49;100.00
55576;BME280;41437;45.478;9.116;2022-12-13T17:11:22;99189.56;;;2.43;100.00
55576;BME280;41437;45.478;9.116;2022-12-13T17:14:25;99197.97;;;2.42;100.00
55576;BME280;41437;45.478;9.116;2022-12-13T17:17:26;99171.34;;;2.25;100.00